createdAt,value
2023-02-13T00:07:50.289Z,102452.47
2023-02-13T00:10:24.062Z,102452.09
2023-02-13T00:13:09.133Z,102446.50
2023-02-13T00:15:50.442Z,102443.28
2023-02-13T00:21:21.899Z,102436.63
2023-02-13T00:24:12.872Z,102438.81
2023-02-13T00:32:17.474Z,102434.13
2023-02-13T00:37:43.142Z,102435.81
2023-02-13T00:43:17.288Z,102439.84
2023-02-13T00:45:58.560Z,102448.38
2023-02-13T00:54:27.941Z,102448.66
2023-02-13T00:57:19.150Z,102450.66
2023-02-13T00:59:55.051Z,102451.38
2023-02-13T01:02:24.804Z,102443.63
2023-02-13T01:04:58.436Z,102447.06
2023-02-13T01:07:33.065Z,102442.88
2023-02-13T01:10:01.972Z,102436.53
2023-02-13T01:12:32.822Z,102444.59
2023-02-13T01:15:02.127Z,102438.69
2023-02-13T01:17:36.659Z,102449.53
2023-02-13T01:20:07.419Z,102449.06
2023-02-13T01:22:38.598Z,102451.16
2023-02-13T01:25:08.478Z,102443.75
2023-02-13T01:27:39.564Z,102438.31
2023-02-13T01:30:16.645Z,102450.47
2023-02-13T01:32:50.986Z,102439.97
2023-02-13T01:35:19.848Z,102444.47
2023-02-13T01:37:57.938Z,102432.16
2023-02-13T01:40:35.043Z,102434.63
2023-02-13T01:43:20.867Z,102441.03
2023-02-13T01:46:01.948Z,102440.59
2023-02-13T01:48:33.616Z,102432.31
2023-02-13T01:51:15.048Z,102433.97
2023-02-13T01:54:04.920Z,102441.41
2023-02-13T01:57:01.116Z,102440.22
2023-02-13T01:59:41.875Z,102451.72
2023-02-13T02:02:29.522Z,102452.00
2023-02-13T02:08:20.507Z,102468.53
2023-02-13T02:11:06.908Z,102463.66
2023-02-13T02:13:35.393Z,102469.50
2023-02-13T02:16:05.615Z,102476.53
2023-02-13T02:18:35.415Z,102473.47
2023-02-13T02:21:30.980Z,102476.34
2023-02-13T02:24:42.033Z,102482.06
2023-02-13T02:27:48.039Z,102482.25
2023-02-13T02:31:06.990Z,102483.50
2023-02-13T02:34:10.458Z,102488.81
2023-02-13T02:36:58.339Z,102492.81
2023-02-13T02:40:06.955Z,102496.09
2023-02-13T02:43:14.324Z,102489.88
2023-02-13T02:45:53.872Z,102496.84
2023-02-13T02:49:20.744Z,102503.31
2023-02-13T02:52:26.628Z,102502.31
2023-02-13T02:55:09.119Z,102488.97
2023-02-13T02:58:36.842Z,102495.31
2023-02-13T03:01:33.892Z,102509.06
2023-02-13T03:04:25.448Z,102511.06
2023-02-13T03:07:00.944Z,102508.72
2023-02-13T03:09:58.989Z,102515.94
2023-02-13T03:13:08.881Z,102515.00
2023-02-13T03:16:05.715Z,102510.81
2023-02-13T03:18:59.865Z,102512.81
2023-02-13T03:22:08.148Z,102520.00
2023-02-13T03:25:34.665Z,102521.53
2023-02-13T03:28:54.458Z,102522.59
2023-02-13T03:31:44.945Z,102512.72
2023-02-13T03:34:24.641Z,102513.69
2023-02-13T03:37:28.934Z,102514.81
2023-02-13T03:40:23.669Z,102512.19
2023-02-13T03:43:10.966Z,102512.00
2023-02-13T03:45:54.894Z,102500.50
2023-02-13T03:49:13.893Z,102515.91
2023-02-13T03:52:05.085Z,102502.56
2023-02-13T03:55:08.961Z,102508.59
2023-02-13T03:58:01.889Z,102511.81
2023-02-13T04:00:39.187Z,102511.31
2023-02-13T04:03:32.136Z,102507.59
2023-02-13T04:06:26.983Z,102521.50
2023-02-13T04:08:56.540Z,102519.38
2023-02-13T04:12:06.563Z,102523.59
2023-02-13T04:14:48.880Z,102530.69
2023-02-13T04:17:27.426Z,102536.63
2023-02-13T04:19:57.403Z,102540.44
2023-02-13T04:22:26.644Z,102537.56
2023-02-13T04:24:54.684Z,102545.38
2023-02-13T04:27:28.736Z,102543.69
2023-02-13T04:30:01.548Z,102542.59
2023-02-13T04:32:35.699Z,102545.22
2023-02-13T04:35:06.122Z,102556.53
2023-02-13T04:37:39.976Z,102558.56
2023-02-13T04:40:09.790Z,102551.28
2023-02-13T04:42:37.655Z,102565.25
2023-02-13T04:45:06.739Z,102566.19
2023-02-13T04:47:36.770Z,102566.13
2023-02-13T04:50:07.020Z,102575.00
2023-02-13T04:52:46.354Z,102574.78
2023-02-13T04:55:15.402Z,102570.34
2023-02-13T04:57:44.424Z,102569.91
2023-02-13T05:00:14.494Z,102568.56
2023-02-13T05:02:44.613Z,102573.06
2023-02-13T05:05:13.863Z,102570.69
2023-02-13T05:07:43.336Z,102568.72
2023-02-13T05:10:14.820Z,102559.41
2023-02-13T05:12:43.934Z,102551.91
2023-02-13T05:15:14.767Z,102553.16
2023-02-13T05:17:47.572Z,102560.41
2023-02-13T05:20:17.034Z,102567.41
2023-02-13T05:23:14.577Z,102566.63
2023-02-13T05:25:43.925Z,102571.72
2023-02-13T05:28:32.826Z,102566.75
2023-02-13T05:31:03.979Z,102565.06
2023-02-13T05:33:33.145Z,102572.28
2023-02-13T05:36:01.385Z,102570.44
2023-02-13T05:38:31.100Z,102563.84
2023-02-13T05:41:01.027Z,102571.31
2023-02-13T05:43:31.023Z,102570.56
2023-02-13T05:46:06.309Z,102564.91
2023-02-13T05:48:36.073Z,102569.00
2023-02-13T05:51:07.905Z,102575.97
2023-02-13T05:53:38.388Z,102589.69
2023-02-13T05:56:08.298Z,102578.19
2023-02-13T05:58:37.691Z,102583.03
2023-02-13T06:10:04.449Z,102577.94
2023-02-13T06:33:01.576Z,102591.97
2023-02-13T06:35:40.377Z,102590.50
2023-02-13T06:44:06.162Z,102603.50
2023-02-13T06:52:25.449Z,102602.75
2023-02-13T07:06:52.394Z,102612.16
2023-02-13T07:12:33.637Z,102613.97
2023-02-13T07:15:10.029Z,102618.28
2023-02-13T07:21:06.665Z,102606.47
2023-02-13T07:30:05.028Z,102602.81
2023-02-13T07:32:36.020Z,102603.50
2023-02-13T07:35:20.516Z,102611.19
2023-02-13T07:37:55.598Z,102609.59
2023-02-13T07:40:42.670Z,102608.09
2023-02-13T07:43:13.825Z,102604.28
2023-02-13T07:45:56.885Z,102615.81
2023-02-13T07:48:34.283Z,102608.50
2023-02-13T07:51:26.277Z,102605.44
2023-02-13T07:57:08.909Z,102591.53
2023-02-13T07:59:39.095Z,102602.44
2023-02-13T08:02:25.255Z,102607.53
2023-02-13T08:04:55.738Z,102595.19
2023-02-13T08:07:34.783Z,102599.94
2023-02-13T08:10:31.837Z,102604.16
2023-02-13T08:13:01.224Z,102605.19
2023-02-13T08:15:33.399Z,102610.72
2023-02-13T08:18:04.875Z,102623.09
2023-02-13T08:20:35.041Z,102618.75
2023-02-13T08:23:12.076Z,102629.50
2023-02-13T08:25:43.096Z,102621.72
2023-02-13T08:28:12.021Z,102621.75
2023-02-13T08:30:41.685Z,102618.63
2023-02-13T08:36:07.865Z,102603.84
2023-02-13T08:38:36.340Z,102596.44
2023-02-13T08:41:06.265Z,102607.47
2023-02-13T08:43:34.876Z,102608.91
2023-02-13T08:46:11.509Z,102608.91
2023-02-13T08:51:38.823Z,102604.03
2023-02-13T08:54:08.133Z,102600.75
2023-02-13T08:56:41.771Z,102610.09
2023-02-13T08:59:14.387Z,102600.44
2023-02-13T09:01:43.984Z,102601.75
2023-02-13T09:04:19.131Z,102592.28
2023-02-13T09:06:48.843Z,102585.47
2023-02-13T09:09:19.834Z,102576.63
2023-02-13T09:11:52.446Z,102575.53
2023-02-13T09:14:24.962Z,102575.53
2023-02-13T09:17:14.029Z,102569.91
2023-02-13T09:19:48.456Z,102569.22
2023-02-13T09:22:18.392Z,102551.19
2023-02-13T09:24:48.522Z,102557.16
2023-02-13T09:27:20.124Z,102548.19
2023-02-13T09:29:49.379Z,102549.06
2023-02-13T09:32:17.712Z,102544.16
2023-02-13T09:34:47.189Z,102530.06
2023-02-13T09:37:16.690Z,102534.16
2023-02-13T09:39:46.818Z,102527.13
2023-02-13T09:42:34.204Z,102511.53
2023-02-13T09:45:06.866Z,102516.69
2023-02-13T09:47:44.728Z,102516.03
2023-02-13T09:50:37.687Z,102516.84
2023-02-13T09:53:24.974Z,102522.53
2023-02-13T09:59:42.618Z,102512.78
2023-02-13T10:02:37.077Z,102503.03
2023-02-13T10:05:58.196Z,102487.34
2023-02-13T10:08:45.925Z,102497.41
2023-02-13T10:11:56.783Z,102496.81
2023-02-13T10:14:37.797Z,102484.88
2023-02-13T10:17:17.616Z,102487.09
2023-02-13T10:19:55.728Z,102476.75
2023-02-13T10:22:31.841Z,102471.72
2023-02-13T10:25:20.586Z,102479.28
2023-02-13T10:28:19.617Z,102458.97
2023-02-13T10:31:13.569Z,102461.59
2023-02-13T10:33:57.227Z,102465.25
2023-02-13T10:36:31.856Z,102471.00
2023-02-13T10:39:30.055Z,102450.84
2023-02-13T10:42:31.356Z,102454.88
2023-02-13T10:45:19.896Z,102438.56
2023-02-13T10:48:28.209Z,102457.44
2023-02-13T10:51:45.626Z,102441.91
2023-02-13T10:54:42.937Z,102454.81
2023-02-13T10:58:04.001Z,102445.09
2023-02-13T11:01:38.781Z,102454.81
2023-02-13T11:04:17.774Z,102449.69
2023-02-13T11:07:15.837Z,102449.63
2023-02-13T11:09:52.936Z,102440.41
2023-02-13T11:12:43.277Z,102428.31
2023-02-13T11:15:34.460Z,102438.09
2023-02-13T11:18:19.740Z,102425.81
2023-02-13T11:21:08.011Z,102415.31
2023-02-13T11:23:48.625Z,102416.03
2023-02-13T11:26:43.496Z,102418.28
2023-02-13T11:29:34.036Z,102411.28
2023-02-13T11:32:17.227Z,102408.47
2023-02-13T11:34:51.470Z,102403.00
2023-02-13T11:37:29.987Z,102402.91
2023-02-13T11:40:34.734Z,102394.50
2023-02-13T11:43:15.478Z,102377.81
2023-02-13T11:46:01.011Z,102386.13
2023-02-13T11:48:34.259Z,102379.03
2023-02-13T11:51:04.896Z,102368.41
2023-02-13T11:57:05.702Z,102376.38
2023-02-13T11:59:45.912Z,102373.66
2023-02-13T12:02:47.992Z,102373.09
2023-02-13T12:05:26.589Z,102373.91
2023-02-13T12:08:01.851Z,102375.59
2023-02-13T12:10:45.616Z,102373.53
2023-02-13T12:13:27.951Z,102369.53
2023-02-13T12:19:41.384Z,102364.53
2023-02-13T12:22:42.251Z,102361.50
2023-02-13T12:26:06.513Z,102363.88
2023-02-13T12:29:09.002Z,102370.97
2023-02-13T12:32:00.829Z,102369.66
2023-02-13T12:35:02.887Z,102360.94
2023-02-13T12:38:03.455Z,102364.34
2023-02-13T12:41:12.084Z,102363.97
2023-02-13T12:44:36.446Z,102361.22
2023-02-13T12:47:33.278Z,102359.78
2023-02-13T12:50:49.550Z,102340.13
2023-02-13T12:54:00.328Z,102327.22
2023-02-13T12:56:40.876Z,102322.34
2023-02-13T12:59:53.045Z,102320.31
2023-02-13T13:03:08.005Z,102321.41
2023-02-13T13:06:15.161Z,102313.91
2023-02-13T13:09:28.943Z,102313.91
2023-02-13T13:12:31.207Z,102304.88
2023-02-13T13:15:37.255Z,102299.75
2023-02-13T13:18:29.798Z,102300.34
2023-02-13T13:24:40.974Z,102295.03
2023-02-13T13:27:24.956Z,102299.75
2023-02-13T13:30:07.124Z,102295.28
2023-02-13T13:32:39.038Z,102290.91
2023-02-13T13:35:14.565Z,102288.94
2023-02-13T13:38:06.978Z,102275.22
2023-02-13T13:41:00.692Z,102266.53
2023-02-13T13:44:00.574Z,102269.09
2023-02-13T13:46:54.905Z,102267.19
2023-02-13T13:49:58.004Z,102255.16
2023-02-13T13:52:39.835Z,102242.25
2023-02-13T13:55:50.303Z,102248.03
2023-02-13T14:04:46.054Z,102244.72
2023-02-13T14:07:29.868Z,102246.59
2023-02-13T14:10:00.881Z,102232.19
2023-02-13T14:12:37.681Z,102225.94
2023-02-13T14:15:40.417Z,102234.66
2023-02-13T14:18:14.460Z,102226.38
2023-02-13T14:20:51.718Z,102224.41
2023-02-13T14:23:33.515Z,102221.28
2023-02-13T14:26:34.291Z,102221.56
2023-02-13T14:29:11.657Z,102211.47
2023-02-13T14:31:51.157Z,102210.81
2023-02-13T14:34:32.733Z,102208.81
2023-02-13T14:37:33.287Z,102213.78
2023-02-13T14:40:20.354Z,102210.75
2023-02-13T14:43:20.441Z,102208.09
2023-02-13T14:49:21.256Z,102198.59
2023-02-13T14:52:08.784Z,102197.06
2023-02-13T14:54:57.078Z,102207.88
2023-02-13T14:57:44.682Z,102197.38
2023-02-13T15:00:45.195Z,102186.84
2023-02-13T15:03:30.701Z,102197.84
2023-02-13T15:06:36.138Z,102190.22
2023-02-13T15:09:15.569Z,102188.47
2023-02-13T15:11:47.727Z,102193.09
2023-02-13T15:14:28.863Z,102189.69
2023-02-13T15:17:16.422Z,102189.78
2023-02-13T15:19:56.850Z,102179.81
2023-02-13T15:22:46.671Z,102185.22
2023-02-13T16:14:29.091Z,102159.22
2023-02-13T16:28:24.159Z,102166.53
2023-02-13T16:31:10.434Z,102150.41
2023-02-13T16:33:48.004Z,102151.91
2023-02-13T16:36:31.877Z,102142.03
2023-02-13T16:39:13.000Z,102138.06
2023-02-13T16:41:44.549Z,102128.75
2023-02-13T16:44:33.989Z,102125.53
2023-02-13T16:47:05.322Z,102133.09
2023-02-13T16:49:38.788Z,102132.44
2023-02-13T16:52:28.593Z,102123.50
2023-02-13T16:55:08.168Z,102107.09
2023-02-13T16:57:42.658Z,102112.19
2023-02-13T17:00:25.616Z,102105.94
2023-02-13T17:02:59.621Z,102109.94
2023-02-13T17:05:31.803Z,102096.84
2023-02-13T17:08:03.842Z,102089.91
2023-02-13T17:10:40.299Z,102085.84
2023-02-13T17:13:19.766Z,102076.94
2023-02-13T17:15:49.109Z,102086.84
2023-02-13T17:18:23.950Z,102080.47
2023-02-13T18:17:25.670Z,102026.81
2023-02-13T18:19:56.044Z,102021.03
2023-02-13T18:22:28.847Z,102020.94
2023-02-13T18:25:04.468Z,102024.84
2023-02-13T18:27:33.619Z,102018.75
2023-02-13T18:30:26.900Z,102017.06
2023-02-13T18:32:59.133Z,102024.34
2023-02-13T18:35:29.456Z,102013.81
2023-02-13T18:37:58.531Z,102019.66
2023-02-13T18:40:29.009Z,102003.41
2023-02-13T18:43:01.360Z,102006.63
2023-02-13T18:45:53.745Z,102013.63
2023-02-13T18:48:37.902Z,102013.53
2023-02-13T18:51:06.912Z,102025.56
2023-02-13T18:53:41.547Z,102019.28
2023-02-13T18:56:15.556Z,102026.88
2023-02-13T18:58:44.955Z,102018.53
2023-02-13T19:01:19.922Z,102033.63
2023-02-13T19:03:54.564Z,102037.28
2023-02-13T19:06:31.201Z,102022.63
2023-02-13T19:09:07.212Z,102015.81
2023-02-13T19:11:39.231Z,102018.88
2023-02-13T19:14:26.995Z,102013.34
2023-02-13T19:17:11.598Z,102011.09
2023-02-13T19:22:28.838Z,102019.66
2023-02-13T19:25:10.386Z,102013.50
2023-02-13T19:30:44.357Z,101985.63
2023-02-13T19:33:30.497Z,101980.56
2023-02-13T19:39:05.588Z,101986.84
2023-02-13T19:41:51.477Z,101988.13
2023-02-13T19:44:36.052Z,101991.91
2023-02-13T20:05:09.330Z,101928.31
2023-02-13T20:11:10.995Z,101936.06
2023-02-13T20:13:42.537Z,101937.22
2023-02-13T20:16:24.225Z,101943.78
2023-02-13T20:19:00.208Z,101936.16
2023-02-13T20:27:13.113Z,101914.22
2023-02-13T20:29:59.091Z,101919.41
2023-02-13T20:32:44.235Z,101914.00
2023-02-13T20:35:14.403Z,101904.50
2023-02-13T20:37:49.051Z,101902.34
2023-02-13T20:40:21.036Z,101888.75
2023-02-13T20:45:59.126Z,101875.78
2023-02-13T20:48:34.550Z,101866.88
2023-02-13T20:51:13.505Z,101859.84
2023-02-13T20:53:48.122Z,101856.25
2023-02-13T20:56:24.370Z,101855.38
2023-02-13T21:04:57.477Z,101845.41
2023-02-13T21:07:32.788Z,101843.50
2023-02-13T21:10:08.898Z,101850.72
2023-02-13T21:12:42.594Z,101851.38
2023-02-13T21:15:13.410Z,101837.88
2023-02-13T21:17:47.378Z,101847.97
2023-02-13T21:23:33.765Z,101835.03
2023-02-13T21:29:26.017Z,101842.09
2023-02-13T21:32:11.965Z,101830.59
2023-02-13T21:34:45.403Z,101836.13
2023-02-13T21:37:47.026Z,101823.50
2023-02-13T21:40:20.398Z,101811.75
2023-02-13T21:42:55.687Z,101812.28
2023-02-13T21:45:29.252Z,101819.03
2023-02-13T21:48:15.817Z,101808.53
2023-02-13T21:50:48.114Z,101805.94
2023-02-13T21:53:20.641Z,101798.69
2023-02-13T21:55:59.618Z,101795.19
2023-02-13T21:58:51.089Z,101793.63
2023-02-13T22:01:36.224Z,101787.31
2023-02-13T22:04:15.883Z,101780.84
2023-02-13T22:06:51.924Z,101787.31
2023-02-13T22:09:24.106Z,101783.50
2023-02-13T22:12:00.330Z,101790.03
2023-02-13T22:14:34.295Z,101785.94
2023-02-13T22:17:17.148Z,101772.13
2023-02-13T22:19:47.345Z,101774.78
2023-02-13T22:22:23.436Z,101774.59
2023-02-13T22:25:07.215Z,101769.94
2023-02-13T22:27:41.533Z,101765.69
2023-02-13T22:30:17.551Z,101765.31
2023-02-13T22:32:52.044Z,101767.97
2023-02-13T22:35:26.929Z,101766.34
2023-02-13T22:37:59.555Z,101775.53
2023-02-13T22:40:32.640Z,101765.19
2023-02-13T22:43:05.655Z,101757.28
2023-02-13T22:45:38.428Z,101761.75
2023-02-13T22:48:12.379Z,101756.59
2023-02-13T22:50:51.325Z,101752.25
2023-02-13T22:53:27.117Z,101740.78
2023-02-13T22:56:07.561Z,101740.56
2023-02-13T22:58:38.172Z,101724.63
2023-02-13T23:01:17.886Z,101720.28
2023-02-13T23:03:48.162Z,101696.19
2023-02-13T23:06:20.988Z,101698.66
2023-02-13T23:08:58.054Z,101705.97
2023-02-13T23:11:48.528Z,101696.97
2023-02-13T23:17:57.333Z,101695.56
2023-02-13T23:20:31.803Z,101706.19
2023-02-13T23:23:11.909Z,101704.47
2023-02-13T23:25:51.776Z,101703.13
2023-02-13T23:28:26.263Z,101693.47
2023-02-13T23:31:06.219Z,101685.50
2023-02-13T23:33:44.777Z,101672.13
2023-02-13T23:36:15.637Z,101683.03
2023-02-13T23:38:48.577Z,101682.19
2023-02-13T23:41:37.390Z,101671.16
2023-02-13T23:44:16.747Z,101673.72
2023-02-13T23:46:52.612Z,101651.53
2023-02-13T23:49:32.053Z,101646.31
2023-02-13T23:52:01.932Z,101659.28
2023-02-13T23:54:34.708Z,101636.13
2023-02-13T23:57:05.433Z,101644.91
2023-02-13T23:59:40.859Z,101639.50
